Time;durP1;ratioP1;P1;durP2;ratioP2;P2;SDS_P1;SDS_P2;PMS_P1;PMS_P2;Temp;Humidity;BMP_temperature;BMP_pressure;BME280_temperature;BME280_humidity;BME280_pressure;Samples;Min_cycle;Max_cycle;Signal;HPM_P1;HPM_P2
2022/07/01 00:00:45;;;;;;;0.00;0.00;;;;;;;;;;5097647;27;20907;-61
2022/07/01 00:03:11;;;;;;;0.00;0.00;;;;;;;;;;5091537;28;20052;-62
2022/07/01 00:05:38;;;;;;;0.00;0.00;;;;;;;;;;5094038;28;20052;-61
2022/07/01 00:08:04;;;;;;;0.00;0.00;;;;;;;;;;5093754;27;20052;-61
2022/07/01 00:10:30;;;;;;;0.00;0.00;;;;;;;;;;5082160;28;20146;-61
2022/07/01 00:12:58;;;;;;;0.00;0.00;;;;;;;;;;5085740;28;20124;-61
2022/07/01 00:15:24;;;;;;;0.30;0.10;;;;;;;;;;5081393;28;20139;-61
2022/07/01 00:17:50;;;;;;;0.00;0.00;;;;;;;;;;5084279;28;20105;-61
2022/07/01 00:20:18;;;;;;;0.00;0.00;;;;;;;;;;5089572;28;20581;-61
2022/07/01 00:22:44;;;;;;;0.00;0.00;;;;;;;;;;5086330;28;20564;-61
2022/07/01 00:25:10;;;;;;;0.00;0.00;;;;;;;;;;5080228;28;20076;-61
2022/07/01 00:27:40;;;;;;;0.00;0.00;;;;;;;;;;5078506;28;20154;-61
2022/07/01 00:30:07;;;;;;;0.05;0.05;;;;;;;;;;5084820;28;20125;-61
2022/07/01 00:32:34;;;;;;;0.00;0.00;;;;;;;;;;5093277;27;20122;-61
2022/07/01 00:35:00;;;;;;;0.00;0.00;;;;;;;;;;5089961;28;20891;-61
2022/07/01 00:37:27;;;;;;;0.00;0.00;;;;;;;;;;5076127;28;20567;-61
2022/07/01 00:39:53;;;;;;;0.00;0.00;;;;;;;;;;5082144;28;20153;-61
2022/07/01 00:42:19;;;;;;;0.00;0.00;;;;;;;;;;5088709;28;20052;-61
2022/07/01 00:44:46;;;;;;;0.00;0.00;;;;;;;;;;5088119;28;20560;-61
2022/07/01 00:47:13;;;;;;;0.00;0.00;;;;;;;;;;5086468;28;20076;-61
2022/07/01 00:49:40;;;;;;;0.00;0.00;;;;;;;;;;5084553;28;20110;-61
2022/07/01 00:52:08;;;;;;;0.00;0.00;;;;;;;;;;5089314;28;20044;-61
2022/07/01 00:54:36;;;;;;;0.00;0.00;;;;;;;;;;5083791;28;20469;-61
2022/07/01 00:57:08;;;;;;;0.00;0.00;;;;;;;;;;5087907;28;20143;-61
2022/07/01 00:59:35;;;;;;;0.00;0.00;;;;;;;;;;5086208;28;20092;-61
2022/07/01 01:02:03;;;;;;;0.00;0.00;;;;;;;;;;5085170;28;20049;-61
2022/07/01 01:04:29;;;;;;;0.00;0.00;;;;;;;;;;5095466;28;20082;-60
2022/07/01 01:06:56;;;;;;;0.00;0.00;;;;;;;;;;5094701;28;20175;-61
2022/07/01 01:09:22;;;;;;;0.00;0.00;;;;;;;;;;5089273;28;20891;-61
2022/07/01 01:11:50;;;;;;;0.00;0.00;;;;;;;;;;5095166;28;20106;-61
2022/07/01 01:14:16;;;;;;;0.00;0.00;;;;;;;;;;5090718;28;20175;-61
2022/07/01 01:16:42;;;;;;;0.00;0.00;;;;;;;;;;5084569;28;20168;-61
2022/07/01 01:19:09;;;;;;;0.00;0.00;;;;;;;;;;5081017;28;20053;-61
2022/07/01 01:21:35;;;;;;;0.00;0.00;;;;;;;;;;5087824;28;20088;-61
2022/07/01 01:24:02;;;;;;;0.00;0.00;;;;;;;;;;5088928;27;20083;-61
2022/07/01 01:26:29;;;;;;;0.00;0.00;;;;;;;;;;5086628;28;20134;-61
2022/07/01 01:28:55;;;;;;;0.00;0.00;;;;;;;;;;5088618;28;20080;-61
2022/07/01 01:31:29;;;;;;;0.00;0.00;;;;;;;;;;5092102;28;20137;-62
2022/07/01 01:33:56;;;;;;;0.00;0.00;;;;;;;;;;5083961;28;20052;-61
2022/07/01 01:36:22;;;;;;;0.00;0.00;;;;;;;;;;5094327;27;20079;-61
2022/07/01 01:38:49;;;;;;;0.00;0.00;;;;;;;;;;5085946;28;20554;-61
2022/07/01 01:41:15;;;;;;;0.00;0.00;;;;;;;;;;5082959;28;20083;-61
2022/07/01 01:43:41;;;;;;;0.00;0.00;;;;;;;;;;5090851;28;20053;-61
2022/07/01 01:46:08;;;;;;;0.00;0.00;;;;;;;;;;5088064;28;20102;-61
2022/07/01 01:48:34;;;;;;;0.00;0.00;;;;;;;;;;5077179;28;20491;-61
2022/07/01 01:51:01;;;;;;;0.00;0.00;;;;;;;;;;5085962;28;20087;-61
2022/07/01 01:53:27;;;;;;;0.00;0.00;;;;;;;;;;5086707;28;20545;-61
2022/07/01 01:55:53;;;;;;;0.00;0.00;;;;;;;;;;5079275;28;20130;-61
2022/07/01 01:58:20;;;;;;;0.08;0.08;;;;;;;;;;5087256;28;20053;-61
2022/07/01 02:00:46;;;;;;;0.00;0.00;;;;;;;;;;5084838;28;20483;-61
2022/07/01 02:03:13;;;;;;;0.00;0.00;;;;;;;;;;5094035;28;20049;-61
2022/07/01 02:05:39;;;;;;;0.00;0.00;;;;;;;;;;5094291;28;20051;-61
2022/07/01 02:08:12;;;;;;;0.22;0.20;;;;;;;;;;5095324;27;20754;-62
2022/07/01 02:10:38;;;;;;;0.00;0.00;;;;;;;;;;5083447;28;20110;-61
2022/07/01 02:13:04;;;;;;;0.00;0.00;;;;;;;;;;5087278;28;20883;-61
2022/07/01 02:15:31;;;;;;;0.00;0.00;;;;;;;;;;5087457;28;20526;-62
2022/07/01 02:17:57;;;;;;;0.00;0.00;;;;;;;;;;5081097;28;20087;-61
2022/07/01 02:20:24;;;;;;;0.00;0.00;;;;;;;;;;5074516;28;20160;-61
2022/07/01 02:22:51;;;;;;;0.00;0.00;;;;;;;;;;5092285;28;20164;-61
2022/07/01 02:25:18;;;;;;;0.00;0.00;;;;;;;;;;5087737;28;20516;-61
2022/07/01 02:27:45;;;;;;;0.00;0.00;;;;;;;;;;5087741;28;20079;-61
2022/07/01 02:30:11;;;;;;;0.00;0.00;;;;;;;;;;5083221;27;20570;-61
2022/07/01 02:32:38;;;;;;;0.00;0.00;;;;;;;;;;5084913;28;20146;-61
2022/07/01 02:35:04;;;;;;;0.00;0.00;;;;;;;;;;5086271;28;20202;-61
2022/07/01 02:37:30;;;;;;;0.00;0.00;;;;;;;;;;5088173;28;20584;-61
2022/07/01 02:39:57;;;;;;;0.00;0.00;;;;;;;;;;5087193;27;20061;-61
2022/07/01 02:42:23;;;;;;;0.00;0.00;;;;;;;;;;5090648;28;20530;-61
2022/07/01 02:44:49;;;;;;;0.00;0.00;;;;;;;;;;5084410;28;20115;-61
2022/07/01 02:47:16;;;;;;;0.00;0.00;;;;;;;;;;5082921;28;20106;-61
2022/07/01 02:49:42;;;;;;;0.00;0.00;;;;;;;;;;5087523;28;20140;-61
2022/07/01 02:52:09;;;;;;;0.03;0.03;;;;;;;;;;5092159;28;20473;-62
2022/07/01 02:54:35;;;;;;;0.15;0.08;;;;;;;;;;5088597;28;20672;-61
2022/07/01 02:57:02;;;;;;;0.00;0.00;;;;;;;;;;5086699;28;20431;-61
2022/07/01 02:59:28;;;;;;;0.00;0.00;;;;;;;;;;5085034;28;20882;-62
2022/07/01 03:01:55;;;;;;;0.00;0.00;;;;;;;;;;5095875;28;20499;-61
2022/07/01 03:04:22;;;;;;;0.00;0.00;;;;;;;;;;5097533;28;20063;-61
2022/07/01 03:06:48;;;;;;;0.00;0.00;;;;;;;;;;5086720;28;20138;-62
2022/07/01 03:09:14;;;;;;;0.20;0.20;;;;;;;;;;5090869;28;20138;-62
2022/07/01 03:11:41;;;;;;;0.00;0.00;;;;;;;;;;5091221;28;20111;-61
2022/07/01 03:14:07;;;;;;;0.00;0.00;;;;;;;;;;5088312;28;20106;-62
2022/07/01 03:16:33;;;;;;;0.00;0.00;;;;;;;;;;5084022;28;20084;-62
2022/07/01 03:19:01;;;;;;;0.00;0.00;;;;;;;;;;5077981;28;20131;-62
2022/07/01 03:21:27;;;;;;;0.00;0.00;;;;;;;;;;5083176;28;20072;-62
2022/07/01 03:23:54;;;;;;;0.00;0.00;;;;;;;;;;5090168;27;20052;-61
2022/07/01 03:26:21;;;;;;;0.00;0.00;;;;;;;;;;5082253;28;20053;-61
2022/07/01 03:28:47;;;;;;;0.00;0.00;;;;;;;;;;5083160;28;20049;-62
2022/07/01 03:31:14;;;;;;;0.00;0.00;;;;;;;;;;5073865;28;20096;-62
2022/07/01 03:33:40;;;;;;;0.00;0.00;;;;;;;;;;5094145;28;20059;-62
2022/07/01 03:36:07;;;;;;;0.00;0.00;;;;;;;;;;5093833;27;20137;-62
2022/07/01 03:38:33;;;;;;;0.00;0.00;;;;;;;;;;5083324;28;20044;-61
2022/07/01 03:40:59;;;;;;;0.00;0.00;;;;;;;;;;5086170;28;20106;-61
2022/07/01 03:43:26;;;;;;;0.10;0.10;;;;;;;;;;5086626;28;20068;-61
2022/07/01 03:45:52;;;;;;;0.00;0.00;;;;;;;;;;5089187;28;20076;-61
2022/07/01 03:48:18;;;;;;;0.00;0.00;;;;;;;;;;5080131;28;20078;-61
2022/07/01 03:50:45;;;;;;;0.00;0.00;;;;;;;;;;5083387;28;20279;-61
2022/07/01 03:55:56;;;;;;;0.00;0.00;;;;;;;;;;5086841;28;20174;-61
2022/07/01 03:58:23;;;;;;;0.00;0.00;;;;;;;;;;5084281;28;22228;-61
2022/07/01 04:00:49;;;;;;;0.00;0.00;;;;;;;;;;5086189;28;20145;-61
2022/07/01 04:03:15;;;;;;;0.00;0.00;;;;;;;;;;5093708;28;20161;-62
2022/07/01 04:05:42;;;;;;;0.00;0.00;;;;;;;;;;5096117;28;20060;-61
2022/07/01 04:08:10;;;;;;;0.00;0.00;;;;;;;;;;5085675;27;20084;-61
2022/07/01 04:10:38;;;;;;;0.00;0.00;;;;;;;;;;5077293;28;20507;-61
2022/07/01 04:13:04;;;;;;;0.00;0.00;;;;;;;;;;5088131;28;20095;-61
2022/07/01 04:15:51;;;;;;;0.00;0.00;;;;;;;;;;5089785;28;20429;-61
2022/07/01 04:18:18;;;;;;;0.00;0.00;;;;;;;;;;5085877;28;20132;-61
2022/07/01 04:22:32;;;;;;;0.00;0.00;;;;;;;;;;5087371;28;20080;-61
2022/07/01 04:23:32;;;;;;;0.00;0.00;;;;;;;;;;5086136;28;20084;-61
2022/07/01 04:25:58;;;;;;;0.10;0.10;;;;;;;;;;5085689;27;20072;-61
2022/07/01 04:28:45;;;;;;;0.28;0.13;;;;;;;;;;5080066;28;20048;-61
2022/07/01 04:31:11;;;;;;;0.05;0.05;;;;;;;;;;5084794;28;20102;-61
2022/07/01 04:33:37;;;;;;;0.00;0.00;;;;;;;;;;5100020;28;20083;-62
2022/07/01 04:36:04;;;;;;;0.00;0.00;;;;;;;;;;5091565;27;20146;-62
2022/07/01 04:38:30;;;;;;;0.00;0.00;;;;;;;;;;5093612;28;20075;-61
2022/07/01 04:43:42;;;;;;;0.00;0.00;;;;;;;;;;5090164;28;20092;-62
2022/07/01 04:46:08;;;;;;;0.00;0.00;;;;;;;;;;5088580;28;20080;-62
2022/07/01 04:48:34;;;;;;;0.00;0.00;;;;;;;;;;5086102;28;20044;-61
2022/07/01 04:51:01;;;;;;;0.00;0.00;;;;;;;;;;5087074;28;20057;-61
2022/07/01 04:53:30;;;;;;;0.00;0.00;;;;;;;;;;5089093;28;20118;-61
2022/07/01 04:55:57;;;;;;;0.00;0.00;;;;;;;;;;5092971;28;20106;-61
2022/07/01 04:58:23;;;;;;;0.00;0.00;;;;;;;;;;5082075;27;20122;-61
2022/07/01 05:00:50;;;;;;;0.00;0.00;;;;;;;;;;5090905;28;20091;-61
2022/07/01 05:03:16;;;;;;;0.00;0.00;;;;;;;;;;5090057;28;20084;-61
2022/07/01 05:05:43;;;;;;;0.00;0.00;;;;;;;;;;5091852;28;20903;-61
2022/07/01 05:08:09;;;;;;;0.00;0.00;;;;;;;;;;5089938;28;20068;-62
2022/07/01 05:10:36;;;;;;;0.00;0.00;;;;;;;;;;5086938;28;20057;-62
2022/07/01 05:13:02;;;;;;;0.00;0.00;;;;;;;;;;5091488;28;20076;-61
2022/07/01 05:15:28;;;;;;;0.00;0.00;;;;;;;;;;5084860;28;20076;-61
2022/07/01 05:23:25;;;;;;;0.15;0.13;;;;;;;;;;5091417;28;20110;-62
2022/07/01 05:25:51;;;;;;;0.00;0.00;;;;;;;;;;5091954;28;20079;-61
2022/07/01 05:28:17;;;;;;;0.32;0.32;;;;;;;;;;5081480;27;20559;-62
2022/07/01 05:30:44;;;;;;;0.00;0.00;;;;;;;;;;5094247;28;20514;-61
2022/07/01 05:33:10;;;;;;;0.00;0.00;;;;;;;;;;5090115;28;20076;-61
2022/07/01 05:35:36;;;;;;;0.10;0.03;;;;;;;;;;5088497;28;20049;-61
2022/07/01 05:38:03;;;;;;;0.00;0.00;;;;;;;;;;5094654;27;20090;-62
2022/07/01 05:40:29;;;;;;;0.00;0.00;;;;;;;;;;5087609;28;20052;-61
2022/07/01 05:42:56;;;;;;;0.00;0.00;;;;;;;;;;5079231;28;20135;-61
2022/07/01 05:45:22;;;;;;;0.00;0.00;;;;;;;;;;5086030;28;20107;-62
2022/07/01 05:47:48;;;;;;;0.00;0.00;;;;;;;;;;5087200;28;20173;-66
2022/07/01 05:50:15;;;;;;;0.00;0.00;;;;;;;;;;5090566;28;20080;-65
2022/07/01 05:52:44;;;;;;;0.00;0.00;;;;;;;;;;5082210;28;20061;-64
2022/07/01 05:55:10;;;;;;;0.00;0.00;;;;;;;;;;5096247;28;20053;-65
2022/07/01 05:57:36;;;;;;;0.00;0.00;;;;;;;;;;5087287;28;20106;-65
2022/07/01 06:00:03;;;;;;;0.00;0.00;;;;;;;;;;5096051;27;20514;-65
2022/07/01 06:02:30;;;;;;;0.00;0.00;;;;;;;;;;5088256;27;20080;-64
2022/07/01 06:04:56;;;;;;;0.00;0.00;;;;;;;;;;5093797;28;20052;-65
2022/07/01 06:07:22;;;;;;;0.00;0.00;;;;;;;;;;5090211;28;20067;-65
2022/07/01 06:09:49;;;;;;;0.00;0.00;;;;;;;;;;5090893;28;20106;-64
2022/07/01 06:12:15;;;;;;;0.00;0.00;;;;;;;;;;5081862;28;20080;-69
2022/07/01 06:14:41;;;;;;;0.00;0.00;;;;;;;;;;5085739;28;20091;-66
2022/07/01 06:17:09;;;;;;;0.00;0.00;;;;;;;;;;5090045;28;20056;-63
2022/07/01 06:19:38;;;;;;;0.00;0.00;;;;;;;;;;5091388;28;20583;-61
2022/07/01 06:22:05;;;;;;;0.00;0.00;;;;;;;;;;5081562;28;20057;-62
2022/07/01 06:24:31;;;;;;;0.10;0.10;;;;;;;;;;5078643;28;20157;-61
2022/07/01 06:26:57;;;;;;;0.00;0.00;;;;;;;;;;5088829;28;20578;-61
2022/07/01 06:29:24;;;;;;;0.00;0.00;;;;;;;;;;5096411;28;20056;-63
2022/07/01 06:31:50;;;;;;;0.00;0.00;;;;;;;;;;5098596;28;20109;-61
2022/07/01 06:34:16;;;;;;;0.00;0.00;;;;;;;;;;5093729;27;20048;-61
2022/07/01 06:36:43;;;;;;;0.30;0.10;;;;;;;;;;5091116;28;20153;-61
2022/07/01 06:39:09;;;;;;;0.10;0.10;;;;;;;;;;5089565;28;20578;-61
2022/07/01 06:41:35;;;;;;;0.00;0.00;;;;;;;;;;5083292;28;20193;-62
2022/07/01 06:44:02;;;;;;;0.00;0.00;;;;;;;;;;5086069;28;20590;-61
2022/07/01 06:46:29;;;;;;;0.00;0.00;;;;;;;;;;5092530;28;20596;-61
2022/07/01 06:48:56;;;;;;;0.00;0.00;;;;;;;;;;5087142;28;20068;-67
2022/07/01 06:51:22;;;;;;;0.00;0.00;;;;;;;;;;5083706;28;20122;-66
2022/07/01 06:53:49;;;;;;;0.00;0.00;;;;;;;;;;5102167;28;20506;-67
2022/07/01 06:56:16;;;;;;;0.00;0.00;;;;;;;;;;5093692;27;20114;-66
2022/07/01 06:58:43;;;;;;;0.00;0.00;;;;;;;;;;5095933;28;20088;-66
2022/07/01 07:01:09;;;;;;;0.10;0.10;;;;;;;;;;5094062;28;20080;-66
2022/07/01 07:03:36;;;;;;;0.00;0.00;;;;;;;;;;5095205;28;20549;-67
2022/07/01 07:06:03;;;;;;;0.00;0.00;;;;;;;;;;5093952;27;20044;-66
2022/07/01 07:08:30;;;;;;;0.00;0.00;;;;;;;;;;5090432;28;20048;-66
2022/07/01 07:10:56;;;;;;;0.00;0.00;;;;;;;;;;5089255;28;20130;-67
2022/07/01 07:13:23;;;;;;;0.00;0.00;;;;;;;;;;5089301;28;20052;-66
2022/07/01 07:15:50;;;;;;;0.00;0.00;;;;;;;;;;5090798;28;20573;-66
2022/07/01 07:18:16;;;;;;;0.00;0.00;;;;;;;;;;5089105;28;20080;-67
2022/07/01 07:20:43;;;;;;;0.05;0.05;;;;;;;;;;5088303;28;20056;-67
2022/07/01 07:23:10;;;;;;;0.00;0.00;;;;;;;;;;5094641;28;20222;-67
2022/07/01 07:25:36;;;;;;;0.00;0.00;;;;;;;;;;5097687;28;20157;-67
2022/07/01 07:28:03;;;;;;;0.03;0.03;;;;;;;;;;5098902;27;20079;-67
2022/07/01 07:30:29;;;;;;;0.00;0.00;;;;;;;;;;5094861;27;20056;-67
2022/07/01 07:32:55;;;;;;;0.10;0.10;;;;;;;;;;5092096;28;20064;-67
2022/07/01 07:35:27;;;;;;;0.00;0.00;;;;;;;;;;5089541;28;20067;-67
2022/07/01 07:37:53;;;;;;;0.00;0.00;;;;;;;;;;5087080;28;20137;-67
2022/07/01 07:40:19;;;;;;;0.00;0.00;;;;;;;;;;5087865;28;20056;-66
2022/07/01 07:42:47;;;;;;;0.00;0.00;;;;;;;;;;5088796;28;20469;-67
2022/07/01 07:45:14;;;;;;;0.03;0.03;;;;;;;;;;5088201;28;20075;-67
2022/07/01 07:47:48;;;;;;;0.00;0.00;;;;;;;;;;5091358;28;20102;-66
2022/07/01 07:50:14;;;;;;;0.00;0.00;;;;;;;;;;5084490;28;20056;-66
2022/07/01 07:52:41;;;;;;;0.00;0.00;;;;;;;;;;5087683;28;20110;-64
2022/07/01 07:55:08;;;;;;;0.00;0.00;;;;;;;;;;5083342;28;20077;-64
2022/07/01 07:57:35;;;;;;;0.00;0.00;;;;;;;;;;5091621;28;20088;-64
2022/07/01 08:00:03;;;;;;;0.00;0.00;;;;;;;;;;5096524;27;20113;-65
2022/07/01 08:02:30;;;;;;;0.00;0.00;;;;;;;;;;5087542;28;20065;-65
2022/07/01 08:04:56;;;;;;;0.43;0.25;;;;;;;;;;5090961;28;20446;-65
2022/07/01 08:07:22;;;;;;;0.00;0.00;;;;;;;;;;5081589;28;20499;-65
2022/07/01 08:09:49;;;;;;;0.00;0.00;;;;;;;;;;5081037;28;20056;-63
2022/07/01 08:12:15;;;;;;;0.00;0.00;;;;;;;;;;5075074;28;20098;-61
2022/07/01 08:14:42;;;;;;;0.00;0.00;;;;;;;;;;5083493;28;20523;-62
2022/07/01 08:17:09;;;;;;;0.00;0.00;;;;;;;;;;5089440;27;20145;-64
2022/07/01 08:19:35;;;;;;;0.00;0.00;;;;;;;;;;5086171;28;20906;-64
2022/07/01 08:22:02;;;;;;;0.00;0.00;;;;;;;;;;5078740;28;20495;-64
2022/07/01 08:24:28;;;;;;;0.05;0.05;;;;;;;;;;5086791;28;20091;-64
2022/07/01 08:26:54;;;;;;;0.00;0.00;;;;;;;;;;5077275;28;20160;-65
2022/07/01 08:29:21;;;;;;;0.00;0.00;;;;;;;;;;5089612;28;20129;-65
2022/07/01 08:31:47;;;;;;;0.00;0.00;;;;;;;;;;5086842;28;20216;-66
2022/07/01 08:34:19;;;;;;;0.00;0.00;;;;;;;;;;5081978;28;20064;-66
2022/07/01 08:36:45;;;;;;;0.00;0.00;;;;;;;;;;5074844;28;20057;-64
2022/07/01 08:39:12;;;;;;;0.00;0.00;;;;;;;;;;5080290;28;20083;-66
2022/07/01 08:41:40;;;;;;;1.08;0.35;;;;;;;;;;5085833;27;20069;-67
2022/07/01 08:44:07;;;;;;;0.00;0.00;;;;;;;;;;5084325;28;20117;-62
2022/07/01 08:46:33;;;;;;;0.00;0.00;;;;;;;;;;5086014;28;20052;-62
2022/07/01 08:49:00;;;;;;;0.00;0.00;;;;;;;;;;5079635;28;20063;-63
2022/07/01 08:51:26;;;;;;;0.00;0.00;;;;;;;;;;5075252;28;20053;-61
2022/07/01 08:53:53;;;;;;;0.00;0.00;;;;;;;;;;5084753;28;20127;-62
2022/07/01 08:59:06;;;;;;;0.00;0.00;;;;;;;;;;5084720;28;20589;-63
2022/07/01 09:01:33;;;;;;;0.00;0.00;;;;;;;;;;5090722;28;20198;-62
2022/07/01 09:04:19;;;;;;;0.00;0.00;;;;;;;;;;5086307;28;20048;-63
2022/07/01 09:06:48;;;;;;;0.00;0.00;;;;;;;;;;5093071;28;20111;-64
2022/07/01 09:09:15;;;;;;;0.00;0.00;;;;;;;;;;5083334;28;20102;-64
2022/07/01 09:11:45;;;;;;;0.05;0.05;;;;;;;;;;5098328;28;20482;-64
2022/07/01 09:14:13;;;;;;;0.00;0.00;;;;;;;;;;5081000;28;20519;-63
2022/07/01 09:16:46;;;;;;;0.00;0.00;;;;;;;;;;5079093;28;20519;-66
2022/07/01 09:19:13;;;;;;;0.00;0.00;;;;;;;;;;5081020;28;20349;-63
2022/07/01 09:21:40;;;;;;;0.00;0.00;;;;;;;;;;5081065;28;20048;-63
2022/07/01 09:24:25;;;;;;;0.00;0.00;;;;;;;;;;5084659;28;20106;-63
2022/07/01 09:26:52;;;;;;;0.00;0.00;;;;;;;;;;5077028;28;20057;-63
2022/07/01 09:29:19;;;;;;;0.00;0.00;;;;;;;;;;5076711;28;20061;-68
2022/07/01 09:31:49;;;;;;;0.00;0.00;;;;;;;;;;5088291;28;20513;-63
2022/07/01 09:34:16;;;;;;;0.00;0.00;;;;;;;;;;5083911;28;20056;-63
2022/07/01 09:36:50;;;;;;;0.10;0.10;;;;;;;;;;5082082;28;20088;-62
2022/07/01 09:39:17;;;;;;;0.00;0.00;;;;;;;;;;5091340;28;20139;-61
2022/07/01 09:42:01;;;;;;;0.00;0.00;;;;;;;;;;5086729;28;20052;-63
2022/07/01 09:44:28;;;;;;;0.00;0.00;;;;;;;;;;5087526;28;20061;-67
2022/07/01 09:46:55;;;;;;;0.00;0.00;;;;;;;;;;5082643;28;20102;-65
2022/07/01 09:49:22;;;;;;;0.00;0.00;;;;;;;;;;5088265;28;20088;-66
2022/07/01 09:51:50;;;;;;;0.00;0.00;;;;;;;;;;5085810;28;20060;-67
2022/07/01 09:54:16;;;;;;;0.00;0.00;;;;;;;;;;5088571;28;20080;-67
2022/07/01 09:56:43;;;;;;;0.00;0.00;;;;;;;;;;5087607;28;20111;-66
2022/07/01 09:59:16;;;;;;;0.00;0.00;;;;;;;;;;5083012;28;20136;-65
2022/07/01 10:01:43;;;;;;;0.00;0.00;;;;;;;;;;5090131;28;20507;-65
2022/07/01 10:04:10;;;;;;;0.00;0.00;;;;;;;;;;5089954;27;20062;-65
2022/07/01 10:06:52;;;;;;;0.00;0.00;;;;;;;;;;5085858;28;20136;-66
2022/07/01 10:09:18;;;;;;;0.10;0.10;;;;;;;;;;5086355;28;20106;-66
2022/07/01 10:11:56;;;;;;;0.00;0.00;;;;;;;;;;5092111;28;20060;-65
2022/07/01 10:14:23;;;;;;;0.00;0.00;;;;;;;;;;5091613;28;20565;-65
2022/07/01 10:16:49;;;;;;;0.00;0.00;;;;;;;;;;5090628;28;20611;-65
2022/07/01 10:19:29;;;;;;;0.00;0.00;;;;;;;;;;5088583;28;20592;-65
2022/07/01 10:21:59;;;;;;;0.20;0.20;;;;;;;;;;5091720;28;20051;-65
2022/07/01 10:24:25;;;;;;;0.00;0.00;;;;;;;;;;5090373;28;20076;-65
2022/07/01 10:26:52;;;;;;;0.00;0.00;;;;;;;;;;5089799;28;20396;-65
2022/07/01 10:29:28;;;;;;;0.00;0.00;;;;;;;;;;5077372;28;20625;-64
2022/07/01 10:31:59;;;;;;;0.00;0.00;;;;;;;;;;5084147;28;20056;-66
2022/07/01 10:34:33;;;;;;;0.00;0.00;;;;;;;;;;5098678;27;20048;-64
2022/07/01 10:37:00;;;;;;;0.00;0.00;;;;;;;;;;5091218;28;20053;-62
2022/07/01 10:39:27;;;;;;;0.00;0.00;;;;;;;;;;5087548;28;20596;-62
2022/07/01 10:41:53;;;;;;;0.00;0.00;;;;;;;;;;5085172;28;20044;-62
2022/07/01 10:44:58;;;;;;;0.00;0.00;;;;;;;;;;5087813;28;20056;-62
2022/07/01 10:47:24;;;;;;;0.00;0.00;;;;;;;;;;5088153;28;20122;-62
2022/07/01 10:49:54;;;;;;;0.00;0.00;;;;;;;;;;5081148;28;20052;-62
2022/07/01 10:52:21;;;;;;;0.00;0.00;;;;;;;;;;5089602;28;20510;-64
2022/07/01 10:54:49;;;;;;;0.00;0.00;;;;;;;;;;5088890;28;20536;-64
2022/07/01 10:57:15;;;;;;;0.00;0.00;;;;;;;;;;5095608;28;20052;-64
2022/07/01 10:59:43;;;;;;;0.00;0.00;;;;;;;;;;5083972;28;20058;-63
2022/07/01 11:02:13;;;;;;;0.00;0.00;;;;;;;;;;5094407;27;20194;-63
2022/07/01 11:04:46;;;;;;;0.00;0.00;;;;;;;;;;5093138;28;20083;-62
2022/07/01 11:07:13;;;;;;;0.00;0.00;;;;;;;;;;5091936;28;20059;-61
2022/07/01 11:09:39;;;;;;;0.00;0.00;;;;;;;;;;5092107;28;20048;-60
2022/07/01 11:12:06;;;;;;;0.00;0.00;;;;;;;;;;5087800;28;20107;-61
2022/07/01 11:14:37;;;;;;;0.00;0.00;;;;;;;;;;5086582;28;20076;-61
2022/07/01 11:17:04;;;;;;;0.00;0.00;;;;;;;;;;5081395;28;20089;-60
2022/07/01 11:19:30;;;;;;;0.00;0.00;;;;;;;;;;5086193;28;20135;-61
2022/07/01 11:21:57;;;;;;;0.00;0.00;;;;;;;;;;5084641;27;20045;-61
2022/07/01 11:24:23;;;;;;;0.00;0.00;;;;;;;;;;5095110;28;20109;-61
2022/07/01 11:26:50;;;;;;;0.00;0.00;;;;;;;;;;5096463;27;20052;-61
2022/07/01 11:29:27;;;;;;;0.00;0.00;;;;;;;;;;5095568;28;20075;-61
2022/07/01 11:31:54;;;;;;;0.00;0.00;;;;;;;;;;5089903;28;20105;-61
2022/07/01 11:34:27;;;;;;;0.00;0.00;;;;;;;;;;5090856;27;20836;-61
2022/07/01 11:39:45;;;;;;;0.00;0.00;;;;;;;;;;5088755;28;20176;-61
2022/07/01 11:42:12;;;;;;;0.00;0.00;;;;;;;;;;5076046;28;20129;-60
2022/07/01 11:44:40;;;;;;;0.00;0.00;;;;;;;;;;5091399;28;20056;-61
2022/07/01 11:47:08;;;;;;;0.00;0.00;;;;;;;;;;5085383;28;20107;-61
2022/07/01 11:49:42;;;;;;;0.00;0.00;;;;;;;;;;5084942;28;20080;-61
2022/07/01 11:52:10;;;;;;;0.00;0.00;;;;;;;;;;5093735;28;20048;-61
2022/07/01 11:54:38;;;;;;;0.00;0.00;;;;;;;;;;5099385;28;20494;-61
2022/07/01 11:57:24;;;;;;;0.00;0.00;;;;;;;;;;5092297;28;20508;-61
2022/07/01 11:59:51;;;;;;;0.00;0.00;;;;;;;;;;5096948;28;20060;-61
2022/07/01 12:02:19;;;;;;;0.00;0.00;;;;;;;;;;5094277;27;20051;-61
2022/07/01 12:04:45;;;;;;;0.00;0.00;;;;;;;;;;5087254;28;20263;-61
2022/07/01 12:07:13;;;;;;;0.00;0.00;;;;;;;;;;5082102;28;20480;-61
2022/07/01 12:09:39;;;;;;;0.00;0.00;;;;;;;;;;5084004;28;20052;-61
2022/07/01 12:12:07;;;;;;;0.00;0.00;;;;;;;;;;5087810;28;20060;-61
2022/07/01 12:14:34;;;;;;;0.00;0.00;;;;;;;;;;5087906;28;20053;-61
2022/07/01 12:17:02;;;;;;;0.00;0.00;;;;;;;;;;5083874;28;20053;-61
2022/07/01 12:19:39;;;;;;;0.00;0.00;;;;;;;;;;5084962;28;20065;-60
2022/07/01 12:22:08;;;;;;;0.00;0.00;;;;;;;;;;5100464;27;20052;-61
2022/07/01 12:24:35;;;;;;;0.00;0.00;;;;;;;;;;5083130;27;20064;-61
2022/07/01 12:27:03;;;;;;;0.00;0.00;;;;;;;;;;5092663;28;20391;-61
2022/07/01 12:29:50;;;;;;;0.00;0.00;;;;;;;;;;5085843;28;20097;-61
2022/07/01 12:32:17;;;;;;;0.00;0.00;;;;;;;;;;5088521;28;20053;-61
2022/07/01 12:34:48;;;;;;;0.00;0.00;;;;;;;;;;5089146;28;20051;-61
2022/07/01 12:37:16;;;;;;;0.00;0.00;;;;;;;;;;5085981;28;20080;-61
2022/07/01 12:39:47;;;;;;;0.00;0.00;;;;;;;;;;5092790;28;20568;-61
2022/07/01 12:42:20;;;;;;;0.00;0.00;;;;;;;;;;5094450;27;20457;-61
2022/07/01 12:44:47;;;;;;;0.00;0.00;;;;;;;;;;5089708;28;20056;-61
2022/07/01 12:47:30;;;;;;;0.00;0.00;;;;;;;;;;5089790;28;20573;-61
2022/07/01 12:50:16;;;;;;;0.00;0.00;;;;;;;;;;5094977;28;20118;-61
2022/07/01 12:53:01;;;;;;;0.00;0.00;;;;;;;;;;5091497;28;20576;-61
2022/07/01 12:55:28;;;;;;;0.00;0.00;;;;;;;;;;5085571;28;20052;-61
2022/07/01 12:57:55;;;;;;;0.00;0.00;;;;;;;;;;5089206;28;20075;-61
2022/07/01 13:00:22;;;;;;;0.00;0.00;;;;;;;;;;5091849;28;20099;-61
2022/07/01 13:02:53;;;;;;;0.00;0.00;;;;;;;;;;5081649;28;20060;-61
2022/07/01 13:05:19;;;;;;;0.10;0.10;;;;;;;;;;5085837;28;20503;-61
2022/07/01 13:07:46;;;;;;;0.00;0.00;;;;;;;;;;5093211;28;20053;-60
2022/07/01 13:10:15;;;;;;;0.00;0.00;;;;;;;;;;5090880;28;20537;-61
2022/07/01 13:12:44;;;;;;;0.00;0.00;;;;;;;;;;5080438;28;20257;-61
2022/07/01 13:15:11;;;;;;;0.00;0.00;;;;;;;;;;5079157;28;20053;-61
2022/07/01 13:17:37;;;;;;;0.00;0.00;;;;;;;;;;5093641;28;20587;-61
2022/07/01 13:20:05;;;;;;;0.00;0.00;;;;;;;;;;5098699;27;20149;-62
2022/07/01 13:22:31;;;;;;;0.00;0.00;;;;;;;;;;5093106;28;20056;-61
2022/07/01 13:24:58;;;;;;;0.00;0.00;;;;;;;;;;5094161;28;20635;-61
2022/07/01 13:27:24;;;;;;;0.00;0.00;;;;;;;;;;5092856;28;20103;-61
2022/07/01 13:29:52;;;;;;;0.00;0.00;;;;;;;;;;5087086;28;20080;-61
2022/07/01 13:32:18;;;;;;;0.00;0.00;;;;;;;;;;5078436;28;20080;-60
2022/07/01 13:34:45;;;;;;;0.00;0.00;;;;;;;;;;5080780;28;20081;-62
2022/07/01 13:37:12;;;;;;;0.00;0.00;;;;;;;;;;5093660;28;20139;-61
2022/07/01 13:39:39;;;;;;;0.00;0.00;;;;;;;;;;5087677;28;20191;-61
2022/07/01 13:42:06;;;;;;;0.00;0.00;;;;;;;;;;5094272;28;20491;-62
2022/07/01 13:44:33;;;;;;;0.00;0.00;;;;;;;;;;5099896;27;20083;-63
2022/07/01 13:47:00;;;;;;;0.00;0.00;;;;;;;;;;5096190;28;20583;-62
2022/07/01 13:49:26;;;;;;;0.00;0.00;;;;;;;;;;5091490;28;20072;-61
2022/07/01 13:51:52;;;;;;;0.00;0.00;;;;;;;;;;5089262;28;20056;-61
2022/07/01 13:54:19;;;;;;;0.00;0.00;;;;;;;;;;5089523;27;20048;-61
2022/07/01 13:56:45;;;;;;;0.00;0.00;;;;;;;;;;5084407;28;20534;-62
2022/07/01 13:59:12;;;;;;;0.00;0.00;;;;;;;;;;5089943;28;20898;-62
2022/07/01 14:01:38;;;;;;;0.00;0.00;;;;;;;;;;5089100;28;20049;-62
2022/07/01 14:04:05;;;;;;;0.00;0.00;;;;;;;;;;5087774;27;20084;-62
2022/07/01 14:06:31;;;;;;;0.00;0.00;;;;;;;;;;5083241;28;20508;-63
2022/07/01 14:08:57;;;;;;;0.00;0.00;;;;;;;;;;5077318;28;20515;-61
2022/07/01 14:11:24;;;;;;;0.00;0.00;;;;;;;;;;5097785;28;20118;-61
2022/07/01 14:13:50;;;;;;;0.00;0.00;;;;;;;;;;5101475;28;20083;-61
2022/07/01 14:16:16;;;;;;;0.00;0.00;;;;;;;;;;5092513;27;20107;-61
2022/07/01 14:18:44;;;;;;;0.00;0.00;;;;;;;;;;5074787;28;20595;-62
2022/07/01 14:21:12;;;;;;;0.00;0.00;;;;;;;;;;5089045;28;20103;-61
2022/07/01 14:23:38;;;;;;;0.00;0.00;;;;;;;;;;5086115;28;20102;-62
2022/07/01 14:26:05;;;;;;;0.00;0.00;;;;;;;;;;5082475;28;20149;-61
2022/07/01 14:28:31;;;;;;;0.00;0.00;;;;;;;;;;5091744;28;21045;-62
2022/07/01 14:30:58;;;;;;;0.00;0.00;;;;;;;;;;5086933;28;20048;-62
2022/07/01 14:33:24;;;;;;;0.05;0.05;;;;;;;;;;5090093;28;20682;-62
2022/07/01 14:35:51;;;;;;;0.00;0.00;;;;;;;;;;5092439;28;20932;-62
2022/07/01 14:38:21;;;;;;;0.00;0.00;;;;;;;;;;5097176;28;20528;-61
2022/07/01 14:40:47;;;;;;;0.00;0.00;;;;;;;;;;5093937;28;20552;-61
2022/07/01 14:43:14;;;;;;;0.00;0.00;;;;;;;;;;5092064;28;20422;-64
2022/07/01 14:45:40;;;;;;;0.00;0.00;;;;;;;;;;5090717;28;20133;-61
2022/07/01 14:48:07;;;;;;;0.00;0.00;;;;;;;;;;5090042;28;20113;-61
2022/07/01 14:50:34;;;;;;;0.00;0.00;;;;;;;;;;5089864;28;20523;-61
2022/07/01 14:53:01;;;;;;;0.00;0.00;;;;;;;;;;5089875;28;20052;-61
2022/07/01 14:55:30;;;;;;;0.00;0.00;;;;;;;;;;5088618;28;20079;-61
2022/07/01 14:57:56;;;;;;;0.00;0.00;;;;;;;;;;5090770;28;20279;-61
2022/07/01 15:00:25;;;;;;;0.00;0.00;;;;;;;;;;5099953;27;20057;-61
2022/07/01 15:02:51;;;;;;;0.00;0.00;;;;;;;;;;5087699;28;20052;-62